createdAt,value
2019-02-21T00:01:08.079Z,19.37
2019-02-21T00:03:56.016Z,17.73
2019-02-21T00:06:46.412Z,19.27
2019-02-21T00:09:33.734Z,19.10
2019-02-21T00:12:21.365Z,19.53
2019-02-21T00:15:08.988Z,19.10
2019-02-21T00:17:56.131Z,19.27
2019-02-21T00:20:43.841Z,18.07
2019-02-21T00:23:31.065Z,20.97
2019-02-21T00:26:18.585Z,17.43
2019-02-21T00:29:06.314Z,15.60
2019-02-21T00:31:53.433Z,16.87
2019-02-21T00:34:40.962Z,21.47
2019-02-21T00:37:28.283Z,18.30
2019-02-21T00:40:15.812Z,18.50
2019-02-21T00:43:03.438Z,20.63
2019-02-21T00:45:51.067Z,20.40
2019-02-21T00:48:38.391Z,19.83
2019-02-21T00:51:26.121Z,19.77
2019-02-21T00:54:13.547Z,20.13
2019-02-21T00:57:00.657Z,20.50
2019-02-21T00:59:50.747Z,17.97
2019-02-21T01:02:37.349Z,20.53
2019-02-21T01:05:25.187Z,21.17
2019-02-21T01:08:13.214Z,21.30
2019-02-21T01:11:00.651Z,19.37
2019-02-21T01:13:47.970Z,19.23
2019-02-21T01:16:35.495Z,23.13
2019-02-21T01:19:22.618Z,20.47
2019-02-21T01:22:10.144Z,21.50
2019-02-21T01:24:57.869Z,20.10
2019-02-21T01:27:45.603Z,20.87
2019-02-21T01:30:33.232Z,19.87
2019-02-21T01:33:20.394Z,20.63
2019-02-21T01:36:08.210Z,22.87
2019-02-21T01:38:56.124Z,23.20
2019-02-21T01:41:44.565Z,22.77
2019-02-21T01:44:32.186Z,21.60
2019-02-21T01:47:19.740Z,23.20
2019-02-21T01:50:08.642Z,23.43
2019-02-21T01:52:56.054Z,23.03
2019-02-21T01:55:44.347Z,26.97
2019-02-21T01:58:31.670Z,23.90
2019-02-21T02:01:19.511Z,25.43
2019-02-21T02:04:07.132Z,23.70
2019-02-21T02:06:54.659Z,22.93
2019-02-21T02:09:42.183Z,23.67
2019-02-21T02:12:29.817Z,24.47
2019-02-21T02:15:17.649Z,22.90
2019-02-21T02:18:05.583Z,24.67
2019-02-21T02:20:53.211Z,25.50
2019-02-21T02:23:40.739Z,25.63
2019-02-21T02:26:28.370Z,24.70
2019-02-21T02:29:15.894Z,25.43
2019-02-21T02:32:03.631Z,27.97
2019-02-21T02:34:51.055Z,24.67
2019-02-21T02:37:38.477Z,28.10
2019-02-21T02:40:27.843Z,23.70
2019-02-21T02:43:15.478Z,26.40
2019-02-21T02:46:03.207Z,25.87
2019-02-21T02:48:50.731Z,23.67
2019-02-21T02:51:38.567Z,24.10
2019-02-21T02:54:25.888Z,23.13
2019-02-21T02:57:13.718Z,24.43
2019-02-21T03:00:01.143Z,24.70
2019-02-21T03:02:48.892Z,27.70
2019-02-21T03:05:36.298Z,23.73
2019-02-21T03:08:23.826Z,26.33
2019-02-21T03:11:11.562Z,26.27
2019-02-21T03:13:59.293Z,25.37
2019-02-21T03:16:46.407Z,24.30
2019-02-21T03:19:34.138Z,27.50
2019-02-21T03:22:21.868Z,25.93
2019-02-21T03:25:09.086Z,26.87
2019-02-21T03:27:56.512Z,29.07
2019-02-21T03:30:44.143Z,26.73
2019-02-21T03:33:31.745Z,26.30
2019-02-21T03:36:18.997Z,27.03
2019-02-21T03:39:08.667Z,26.00
2019-02-21T03:41:56.294Z,28.67
2019-02-21T03:44:43.616Z,29.57
2019-02-21T03:47:31.161Z,26.87
2019-02-21T03:50:18.679Z,27.83
2019-02-21T03:53:06.509Z,29.20
2019-02-21T03:55:54.570Z,26.07
2019-02-21T03:58:42.182Z,27.77
2019-02-21T04:01:29.697Z,27.13
2019-02-21T04:04:17.536Z,27.30
2019-02-21T04:07:04.881Z,27.13
2019-02-21T04:09:51.973Z,27.37
2019-02-21T04:12:39.206Z,27.37
2019-02-21T04:15:26.816Z,29.43
2019-02-21T04:18:14.354Z,28.43
2019-02-21T04:21:01.927Z,28.47
2019-02-21T04:23:50.543Z,27.33
2019-02-21T04:26:38.053Z,24.67
2019-02-21T04:29:24.965Z,26.30
2019-02-21T04:32:17.096Z,28.40
2019-02-21T04:35:01.003Z,26.53
2019-02-21T04:37:48.565Z,26.47
2019-02-21T04:40:36.098Z,27.67
2019-02-21T04:43:23.720Z,28.83
2019-02-21T04:46:11.353Z,27.70
2019-02-21T04:48:58.569Z,26.17
2019-02-21T04:51:46.401Z,26.53
2019-02-21T04:54:33.936Z,26.50
2019-02-21T04:57:21.762Z,25.47
2019-02-21T05:00:11.807Z,25.20
2019-02-21T05:02:58.973Z,26.60
2019-02-21T05:05:46.596Z,29.60
2019-02-21T05:08:34.026Z,27.87
2019-02-21T05:11:21.852Z,26.27
2019-02-21T05:14:08.972Z,26.60
2019-02-21T05:16:56.191Z,30.07
2019-02-21T05:19:43.924Z,24.40
2019-02-21T05:22:31.345Z,28.57
2019-02-21T05:25:19.081Z,27.53
2019-02-21T05:28:23.193Z,27.80
2019-02-21T05:31:12.566Z,27.23
2019-02-21T05:34:01.668Z,31.73
2019-02-21T05:36:50.687Z,27.67
2019-02-21T05:39:55.173Z,26.83
2019-02-21T05:43:02.705Z,32.63
2019-02-21T05:46:10.211Z,28.07
2019-02-21T05:48:59.887Z,30.57
2019-02-21T05:51:54.778Z,30.97
2019-02-21T05:54:58.631Z,29.00
2019-02-21T05:57:48.263Z,27.97
2019-02-21T06:00:37.637Z,30.50
2019-02-21T06:03:26.694Z,32.13
2019-02-21T06:06:19.039Z,30.13
2019-02-21T06:09:14.956Z,27.70
2019-02-21T06:12:03.812Z,30.30
2019-02-21T06:14:56.124Z,32.57
2019-02-21T06:17:48.185Z,33.83
2019-02-21T06:20:37.176Z,31.70
2019-02-21T06:23:29.180Z,28.93
2019-02-21T06:26:21.109Z,33.70
2019-02-21T06:29:10.790Z,30.77
2019-02-21T06:31:58.413Z,27.93
2019-02-21T06:34:46.048Z,30.27
2019-02-21T06:37:33.363Z,30.50
2019-02-21T06:40:20.481Z,31.27
2019-02-21T06:43:08.119Z,28.07
2019-02-21T06:45:57.818Z,29.93
2019-02-21T06:48:44.289Z,29.37
2019-02-21T06:51:32.391Z,30.10
2019-02-21T06:54:19.752Z,30.07
2019-02-21T06:57:07.177Z,29.40
2019-02-21T06:59:54.803Z,32.07
2019-02-21T07:02:42.023Z,29.43
2019-02-21T07:05:29.550Z,30.23
2019-02-21T07:08:16.895Z,27.63
2019-02-21T07:11:06.503Z,29.60
2019-02-21T07:13:53.358Z,29.50
2019-02-21T07:16:40.786Z,31.07
2019-02-21T07:19:28.106Z,30.40
2019-02-21T07:22:17.952Z,29.67
2019-02-21T07:25:07.471Z,28.73
2019-02-21T07:27:55.090Z,31.27
2019-02-21T07:30:43.621Z,29.63
2019-02-21T07:33:31.267Z,30.93
2019-02-21T07:36:18.382Z,28.10
2019-02-21T07:39:18.310Z,27.40
2019-02-21T07:41:59.796Z,30.20
2019-02-21T07:44:47.179Z,25.93
2019-02-21T07:47:34.736Z,25.67
2019-02-21T07:50:23.378Z,29.10
2019-02-21T07:53:11.109Z,29.57
2019-02-21T07:55:58.401Z,29.83
2019-02-21T07:58:45.765Z,27.83
2019-02-21T08:01:33.392Z,28.80
2019-02-21T08:04:21.328Z,30.23
2019-02-21T08:07:08.448Z,31.70
2019-02-21T08:09:57.611Z,26.03
2019-02-21T08:12:44.736Z,25.03
2019-02-21T08:15:32.364Z,28.57
2019-02-21T08:18:19.684Z,26.50
2019-02-21T08:21:07.308Z,30.37
2019-02-21T08:23:54.938Z,26.63
2019-02-21T08:26:42.403Z,25.90
2019-02-21T08:29:29.819Z,27.00
2019-02-21T08:32:18.947Z,27.50
2019-02-21T08:35:07.049Z,24.20
2019-02-21T08:37:54.313Z,25.93
2019-02-21T08:40:41.541Z,25.57
2019-02-21T08:43:28.644Z,26.13
2019-02-21T08:46:18.247Z,28.93
2019-02-21T08:49:04.925Z,28.93
2019-02-21T08:51:54.986Z,32.80
2019-02-21T08:54:41.515Z,33.93
2019-02-21T08:57:29.558Z,32.07
2019-02-21T09:00:17.624Z,27.30
2019-02-21T09:03:05.570Z,27.00
2019-02-21T09:05:53.159Z,26.47
2019-02-21T09:08:41.196Z,26.17
2019-02-21T09:11:28.517Z,27.77
2019-02-21T09:14:16.044Z,26.10
2019-02-21T09:17:03.475Z,26.23
2019-02-21T09:19:51.099Z,27.40
2019-02-21T09:22:38.931Z,27.77
2019-02-21T09:25:26.605Z,27.07
2019-02-21T09:28:15.834Z,27.70
2019-02-21T09:31:03.064Z,35.37
2019-02-21T09:33:50.797Z,34.30
2019-02-21T09:36:38.414Z,31.97
2019-02-21T09:39:26.161Z,29.13
2019-02-21T09:42:13.974Z,28.43
2019-02-21T09:45:01.312Z,26.33
2019-02-21T09:47:48.845Z,27.50
2019-02-21T09:50:36.571Z,30.13
2019-02-21T09:53:24.080Z,28.30
2019-02-21T09:56:11.504Z,27.00
2019-02-21T09:58:58.722Z,26.17
2019-02-21T10:01:46.659Z,32.10
2019-02-21T10:04:34.176Z,34.47
2019-02-21T10:07:21.812Z,28.27
2019-02-21T10:10:19.798Z,24.67
2019-02-21T10:13:07.109Z,30.27
2019-02-21T10:15:54.531Z,25.97
2019-02-21T10:18:41.761Z,28.03
2019-02-21T10:21:29.486Z,25.03
2019-02-21T10:24:16.808Z,26.20
2019-02-21T10:27:04.639Z,32.13
2019-02-21T10:29:52.367Z,25.70
2019-02-21T10:32:39.587Z,31.47
2019-02-21T10:35:27.113Z,30.47
2019-02-21T10:38:14.438Z,36.70
2019-02-21T10:41:01.659Z,31.10
2019-02-21T10:43:49.090Z,23.70
2019-02-21T10:46:36.607Z,33.33
2019-02-21T10:49:23.828Z,33.17
2019-02-21T10:52:10.945Z,26.07
2019-02-21T10:54:58.265Z,31.83
2019-02-21T10:57:46.109Z,27.10
2019-02-21T11:00:33.623Z,25.87
2019-02-21T11:03:20.857Z,21.03
2019-02-21T11:06:08.434Z,21.93
2019-02-21T11:08:56.203Z,25.77
2019-02-21T11:11:43.730Z,20.30
2019-02-21T11:14:32.178Z,22.37
2019-02-21T11:17:19.694Z,23.57
2019-02-21T11:20:10.097Z,19.53
2019-02-21T11:22:57.734Z,21.17
2019-02-21T11:25:45.161Z,19.43
2019-02-21T11:28:32.987Z,19.40
2019-02-21T11:31:20.826Z,19.87
2019-02-21T11:34:08.551Z,19.30
2019-02-21T11:36:56.291Z,17.97
2019-02-21T11:39:43.601Z,18.10
2019-02-21T11:42:31.231Z,18.23
2019-02-21T11:45:22.159Z,20.67
2019-02-21T11:48:09.973Z,16.87
2019-02-21T11:50:57.807Z,17.50
2019-02-21T11:53:45.743Z,17.50
2019-02-21T11:56:33.269Z,17.90
2019-02-21T11:59:20.589Z,18.00
2019-02-21T12:02:07.811Z,73.17
2019-02-21T12:04:55.335Z,31.33
2019-02-21T12:07:42.863Z,20.23
2019-02-21T12:10:30.592Z,29.07
2019-02-21T12:13:18.428Z,47.60
2019-02-21T12:16:05.650Z,18.20
2019-02-21T12:18:52.875Z,30.00
2019-02-21T12:21:40.394Z,21.37
2019-02-21T12:24:27.923Z,18.37
2019-02-21T12:27:15.243Z,15.17
2019-02-21T12:30:02.573Z,14.83
2019-02-21T12:32:50.189Z,18.30
2019-02-21T12:35:37.851Z,20.00
2019-02-21T12:38:25.041Z,19.17
2019-02-21T12:41:12.269Z,20.47
2019-02-21T12:44:00.092Z,18.47
2019-02-21T12:46:47.414Z,14.40
2019-02-21T12:49:34.738Z,15.53
2019-02-21T12:52:22.365Z,17.30
2019-02-21T12:55:11.280Z,17.87
2019-02-21T12:57:58.559Z,18.73
2019-02-21T13:00:46.377Z,17.07
2019-02-21T13:03:34.615Z,14.97
2019-02-21T13:06:21.745Z,15.73
2019-02-21T13:09:09.470Z,15.87
2019-02-21T13:11:56.999Z,18.37
2019-02-21T13:14:44.628Z,15.00
2019-02-21T13:17:31.947Z,17.97
2019-02-21T13:20:19.883Z,23.73
2019-02-21T13:23:07.527Z,20.07
2019-02-21T13:25:55.243Z,20.23
2019-02-21T13:28:42.667Z,17.30
2019-02-21T13:31:29.995Z,18.20
2019-02-21T13:34:17.416Z,21.67
2019-02-21T13:37:04.964Z,18.63
2019-02-21T13:39:52.366Z,22.77
2019-02-21T13:42:39.995Z,16.63
2019-02-21T13:45:27.932Z,18.33
2019-02-21T13:48:16.581Z,15.63
2019-02-21T13:51:03.608Z,13.50
2019-02-21T13:53:52.332Z,16.37
2019-02-21T13:56:40.190Z,19.17
2019-02-21T13:59:27.321Z,14.50
2019-02-21T14:02:15.429Z,15.00
2019-02-21T14:05:02.972Z,15.20
2019-02-21T14:07:50.710Z,15.43
2019-02-21T14:10:38.138Z,14.43
2019-02-21T14:13:25.553Z,16.33
2019-02-21T14:16:13.692Z,14.70
2019-02-21T14:19:00.809Z,16.17
2019-02-21T14:21:48.645Z,15.17
2019-02-21T14:24:37.378Z,19.67
2019-02-21T14:27:24.928Z,17.63
2019-02-21T14:30:20.645Z,15.90
2019-02-21T14:33:08.272Z,19.43
2019-02-21T14:35:56.004Z,19.50
2019-02-21T14:38:43.743Z,19.03
2019-02-21T14:41:30.859Z,17.87
2019-02-21T14:44:18.498Z,18.93
2019-02-21T14:47:07.940Z,18.97
2019-02-21T14:49:54.570Z,19.50
2019-02-21T14:52:42.087Z,22.93
2019-02-21T14:55:30.257Z,21.20
2019-02-21T14:58:17.446Z,20.43
2019-02-21T15:01:05.946Z,21.43
2019-02-21T15:03:53.336Z,22.30
2019-02-21T15:06:40.639Z,22.87
2019-02-21T15:09:27.756Z,22.27
2019-02-21T15:12:15.487Z,23.63
2019-02-21T15:15:03.156Z,29.13
2019-02-21T15:17:51.052Z,24.17
2019-02-21T15:20:38.580Z,22.33
2019-02-21T15:23:26.108Z,22.13
2019-02-21T15:26:13.530Z,24.47
2019-02-21T15:29:01.263Z,23.80
2019-02-21T15:31:48.632Z,24.17
2019-02-21T15:34:35.908Z,25.20
2019-02-21T15:37:23.637Z,24.07
2019-02-21T15:40:11.061Z,38.23
2019-02-21T15:42:58.494Z,53.33
2019-02-21T15:45:45.704Z,67.53
2019-02-21T15:48:33.438Z,31.87
2019-02-21T15:51:20.766Z,29.23
2019-02-21T15:54:08.453Z,28.60
2019-02-21T15:56:56.223Z,26.33
2019-02-21T15:59:43.645Z,22.10
2019-02-21T16:02:31.172Z,24.97
2019-02-21T16:05:18.697Z,23.33
2019-02-21T16:08:06.191Z,24.33
2019-02-21T16:10:53.651Z,23.80
2019-02-21T16:13:41.543Z,22.10
2019-02-21T16:16:30.969Z,22.57
2019-02-21T16:19:18.381Z,22.87
2019-02-21T16:22:05.908Z,22.83
2019-02-21T16:24:53.332Z,23.13
2019-02-21T16:27:41.165Z,24.52
2019-02-21T16:30:28.489Z,27.37
2019-02-21T16:33:16.505Z,23.73
2019-02-21T16:36:04.055Z,22.13
2019-02-21T16:38:51.683Z,24.03
2019-02-21T16:41:39.308Z,24.13
2019-02-21T16:44:26.427Z,26.47
2019-02-21T16:47:14.391Z,24.90
2019-02-21T16:50:01.717Z,25.73
2019-02-21T16:52:49.313Z,25.00
2019-02-21T16:55:36.738Z,23.50
2019-02-21T16:58:24.059Z,25.63
2019-02-21T17:01:11.793Z,25.57
2019-02-21T17:03:59.216Z,24.20
2019-02-21T17:06:46.744Z,25.50
2019-02-21T17:09:33.859Z,27.30
2019-02-21T17:12:21.552Z,24.47
2019-02-21T17:15:17.220Z,23.47
2019-02-21T17:18:06.681Z,24.93
2019-02-21T17:20:53.998Z,28.13
2019-02-21T17:23:41.837Z,26.53
2019-02-21T17:26:30.896Z,30.47
2019-02-21T17:29:18.012Z,26.53
2019-02-21T17:32:05.438Z,28.20
2019-02-21T17:34:53.378Z,27.87
2019-02-21T17:37:41.035Z,27.57
2019-02-21T17:40:28.733Z,26.93
2019-02-21T17:43:16.365Z,27.57
2019-02-21T17:46:03.582Z,29.33
2019-02-21T17:48:50.701Z,29.50
2019-02-21T17:51:38.333Z,28.57
2019-02-21T17:54:27.793Z,28.80
2019-02-21T17:57:14.962Z,28.53
2019-02-21T18:00:02.564Z,31.17
2019-02-21T18:02:50.057Z,27.97
2019-02-21T18:05:37.910Z,29.87
2019-02-21T18:08:25.329Z,31.07
2019-02-21T18:11:12.965Z,31.73
2019-02-21T18:14:00.548Z,29.77
2019-02-21T18:16:47.809Z,30.10
2019-02-21T18:19:35.188Z,29.90
2019-02-21T18:22:22.473Z,35.17
2019-02-21T18:25:16.434Z,31.57
2019-02-21T18:28:03.859Z,26.80
2019-02-21T18:30:50.971Z,33.10
2019-02-21T18:33:38.397Z,30.93
2019-02-21T18:36:25.332Z,30.27
2019-02-21T18:39:13.472Z,31.57
2019-02-21T18:42:05.693Z,30.93
2019-02-21T18:44:52.907Z,31.17
2019-02-21T18:47:40.431Z,28.30
2019-02-21T18:50:37.623Z,30.83
2019-02-21T18:53:17.556Z,33.10
2019-02-21T18:56:05.779Z,27.47
2019-02-21T18:58:53.548Z,27.93
2019-02-21T19:01:40.725Z,30.13
2019-02-21T19:04:28.561Z,27.73
2019-02-21T19:07:15.984Z,28.37
2019-02-21T19:10:04.468Z,28.80
2019-02-21T19:12:51.858Z,30.33
2019-02-21T19:15:39.795Z,27.17
2019-02-21T19:18:28.861Z,31.93
2019-02-21T19:21:16.412Z,30.70
2019-02-21T19:24:04.009Z,29.60
2019-02-21T19:26:51.853Z,31.17
2019-02-21T19:29:39.073Z,32.73
2019-02-21T19:32:26.710Z,30.87
2019-02-21T19:35:14.383Z,32.07
2019-02-21T19:38:10.033Z,36.30
2019-02-21T19:40:50.612Z,31.47
2019-02-21T19:43:38.161Z,35.50
2019-02-21T19:46:25.556Z,33.57
2019-02-21T19:49:12.776Z,33.80
2019-02-21T19:52:00.403Z,33.97
2019-02-21T19:54:48.096Z,36.90
2019-02-21T19:57:35.869Z,39.93
2019-02-21T20:00:26.957Z,41.23
2019-02-21T20:03:14.198Z,41.03
2019-02-21T20:06:01.314Z,102.10
2019-02-21T20:08:50.383Z,70.77
2019-02-21T20:11:38.125Z,98.53
2019-02-21T20:14:26.771Z,45.90
2019-02-21T20:17:14.126Z,42.30
2019-02-21T20:20:02.499Z,40.60
2019-02-21T20:22:49.854Z,38.10
2019-02-21T20:25:36.866Z,34.50
2019-02-21T20:28:24.290Z,37.23
2019-02-21T20:31:12.167Z,35.47
2019-02-21T20:33:59.755Z,39.13
2019-02-21T20:36:50.985Z,38.47
2019-02-21T20:39:36.445Z,40.57
2019-02-21T20:42:24.670Z,42.67
2019-02-21T20:45:16.106Z,38.70
2019-02-21T20:48:03.227Z,39.63
2019-02-21T20:50:56.875Z,38.67
2019-02-21T20:53:39.611Z,36.83
2019-02-21T20:56:27.443Z,39.07
2019-02-21T20:59:14.970Z,37.07
2019-02-21T21:02:02.499Z,39.47
2019-02-21T21:04:50.033Z,37.67
2019-02-21T21:07:37.653Z,36.27
2019-02-21T21:10:25.384Z,35.17
2019-02-21T21:13:12.616Z,40.30
2019-02-21T21:16:00.335Z,38.80
2019-02-21T21:18:48.064Z,38.40
2019-02-21T21:21:35.692Z,40.03
2019-02-21T21:24:23.329Z,38.70
2019-02-21T21:27:11.057Z,43.27
2019-02-21T21:29:58.178Z,39.20
2019-02-21T21:32:45.361Z,37.60
2019-02-21T21:35:32.801Z,38.20
2019-02-21T21:38:24.229Z,38.43
2019-02-21T21:41:09.506Z,37.63
2019-02-21T21:43:57.033Z,38.77
2019-02-21T21:46:44.353Z,38.70
2019-02-21T21:49:31.983Z,36.27
2019-02-21T21:52:19.816Z,34.63
2019-02-21T21:55:07.550Z,37.27
2019-02-21T21:57:55.074Z,38.17
2019-02-21T22:00:42.808Z,35.83
2019-02-21T22:03:30.131Z,34.27
2019-02-21T22:06:17.555Z,33.27
2019-02-21T22:09:06.081Z,34.37
2019-02-21T22:11:53.225Z,33.17
2019-02-21T22:14:40.440Z,32.50
2019-02-21T22:17:27.863Z,37.17
2019-02-21T22:20:15.390Z,34.30
2019-02-21T22:23:02.817Z,35.80
2019-02-21T22:25:50.547Z,35.07
2019-02-21T22:28:38.688Z,33.00
2019-02-21T22:31:26.214Z,36.17
2019-02-21T22:34:14.459Z,32.77
2019-02-21T22:37:02.188Z,36.03
2019-02-21T22:39:50.026Z,36.33
2019-02-21T22:42:37.143Z,37.67
2019-02-21T22:45:24.565Z,39.47
2019-02-21T22:48:12.297Z,33.20
2019-02-21T22:51:00.234Z,33.27
2019-02-21T22:53:47.351Z,36.10
2019-02-21T22:56:34.371Z,34.83
2019-02-21T22:59:22.553Z,35.43
2019-02-21T23:02:10.136Z,33.40
2019-02-21T23:05:15.686Z,33.67
2019-02-21T23:08:03.555Z,35.63
2019-02-21T23:10:51.454Z,34.93
2019-02-21T23:13:38.981Z,32.83
2019-02-21T23:16:26.949Z,35.97
2019-02-21T23:19:15.101Z,32.17
2019-02-21T23:22:03.124Z,33.47
2019-02-21T23:24:51.031Z,32.77
2019-02-21T23:27:38.353Z,34.07
2019-02-21T23:30:25.786Z,36.77
2019-02-21T23:33:13.963Z,33.57
2019-02-21T23:36:01.561Z,33.43
2019-02-21T23:38:48.969Z,31.83
2019-02-21T23:41:36.834Z,33.60
2019-02-21T23:44:24.124Z,33.30
2019-02-21T23:47:11.773Z,33.00
2019-02-21T23:49:59.077Z,33.53
2019-02-21T23:52:46.607Z,35.17
2019-02-21T23:55:34.332Z,35.77
2019-02-21T23:58:21.655Z,36.73
